sensor_id;sensor_type;location;lat;lon;timestamp;P1;durP1;ratioP1;P2;durP2;ratioP2
59856;SDS011;45733;52.668;6.860;2023-04-03T00:02:07;1.10;;;1.10;;
59856;SDS011;45733;52.668;6.860;2023-04-03T00:04:33;1.10;;;1.10;;
59856;SDS011;45733;52.668;6.860;2023-04-03T00:06:58;1.10;;;1.10;;
59856;SDS011;45733;52.668;6.860;2023-04-03T00:09:24;1.25;;;1.25;;
59856;SDS011;45733;52.668;6.860;2023-04-03T00:11:50;1.10;;;1.10;;
59856;SDS011;45733;52.668;6.860;2023-04-03T00:14:15;1.00;;;1.00;;
59856;SDS011;45733;52.668;6.860;2023-04-03T00:16:41;1.10;;;1.10;;
59856;SDS011;45733;52.668;6.860;2023-04-03T00:19:07;1.10;;;1.10;;
59856;SDS011;45733;52.668;6.860;2023-04-03T00:21:33;1.00;;;1.00;;
59856;SDS011;45733;52.668;6.860;2023-04-03T00:23:59;1.20;;;1.20;;
59856;SDS011;45733;52.668;6.860;2023-04-03T00:26:25;1.10;;;1.10;;
59856;SDS011;45733;52.668;6.860;2023-04-03T00:28:50;1.00;;;1.00;;
59856;SDS011;45733;52.668;6.860;2023-04-03T00:31:16;1.00;;;1.00;;
59856;SDS011;45733;52.668;6.860;2023-04-03T00:33:42;1.00;;;1.00;;
59856;SDS011;45733;52.668;6.860;2023-04-03T00:36:08;1.17;;;1.17;;
59856;SDS011;45733;52.668;6.860;2023-04-03T00:38:35;1.00;;;1.00;;
59856;SDS011;45733;52.668;6.860;2023-04-03T00:41:01;1.00;;;1.00;;
59856;SDS011;45733;52.668;6.860;2023-04-03T00:43:27;1.00;;;1.00;;
59856;SDS011;45733;52.668;6.860;2023-04-03T00:45:56;1.02;;;1.02;;
59856;SDS011;45733;52.668;6.860;2023-04-03T00:51:01;1.10;;;1.10;;
59856;SDS011;45733;52.668;6.860;2023-04-03T00:53:30;1.00;;;1.00;;
59856;SDS011;45733;52.668;6.860;2023-04-03T00:56:00;1.00;;;1.00;;
59856;SDS011;45733;52.668;6.860;2023-04-03T00:58:48;1.00;;;1.00;;
59856;SDS011;45733;52.668;6.860;2023-04-03T01:01:19;0.93;;;0.93;;
59856;SDS011;45733;52.668;6.860;2023-04-03T01:03:48;1.00;;;1.00;;
59856;SDS011;45733;52.668;6.860;2023-04-03T01:06:15;0.98;;;0.98;;
59856;SDS011;45733;52.668;6.860;2023-04-03T01:08:45;1.00;;;1.00;;
59856;SDS011;45733;52.668;6.860;2023-04-03T01:11:14;0.93;;;0.93;;
59856;SDS011;45733;52.668;6.860;2023-04-03T01:13:40;1.00;;;1.00;;
59856;SDS011;45733;52.668;6.860;2023-04-03T01:16:06;0.98;;;0.98;;
59856;SDS011;45733;52.668;6.860;2023-04-03T01:18:32;1.00;;;1.00;;
59856;SDS011;45733;52.668;6.860;2023-04-03T01:26:22;0.90;;;0.90;;
59856;SDS011;45733;52.668;6.860;2023-04-03T01:28:49;0.90;;;0.90;;
59856;SDS011;45733;52.668;6.860;2023-04-03T01:34:09;0.90;;;0.90;;
59856;SDS011;45733;52.668;6.860;2023-04-03T01:36:35;0.98;;;0.98;;
59856;SDS011;45733;52.668;6.860;2023-04-03T01:39:00;1.00;;;1.00;;
59856;SDS011;45733;52.668;6.860;2023-04-03T01:41:27;0.90;;;0.90;;
59856;SDS011;45733;52.668;6.860;2023-04-03T01:43:53;1.00;;;1.00;;
59856;SDS011;45733;52.668;6.860;2023-04-03T01:46:19;0.90;;;0.90;;
59856;SDS011;45733;52.668;6.860;2023-04-03T01:48:45;0.90;;;0.90;;
59856;SDS011;45733;52.668;6.860;2023-04-03T01:51:11;1.00;;;1.00;;
59856;SDS011;45733;52.668;6.860;2023-04-03T01:53:37;0.90;;;0.90;;
59856;SDS011;45733;52.668;6.860;2023-04-03T01:56:03;0.80;;;0.80;;
59856;SDS011;45733;52.668;6.860;2023-04-03T01:58:29;0.90;;;0.90;;
59856;SDS011;45733;52.668;6.860;2023-04-03T02:00:55;0.90;;;0.90;;
59856;SDS011;45733;52.668;6.860;2023-04-03T02:03:21;0.90;;;0.90;;
59856;SDS011;45733;52.668;6.860;2023-04-03T02:05:47;0.80;;;0.80;;
59856;SDS011;45733;52.668;6.860;2023-04-03T02:08:13;0.90;;;0.90;;
59856;SDS011;45733;52.668;6.860;2023-04-03T02:10:38;0.80;;;0.80;;
59856;SDS011;45733;52.668;6.860;2023-04-03T02:13:04;0.90;;;0.90;;
59856;SDS011;45733;52.668;6.860;2023-04-03T02:15:30;0.90;;;0.90;;
59856;SDS011;45733;52.668;6.860;2023-04-03T02:17:56;0.90;;;0.90;;
59856;SDS011;45733;52.668;6.860;2023-04-03T02:20:21;0.90;;;0.90;;
59856;SDS011;45733;52.668;6.860;2023-04-03T02:22:47;0.85;;;0.85;;
59856;SDS011;45733;52.668;6.860;2023-04-03T02:25:13;0.93;;;0.93;;
59856;SDS011;45733;52.668;6.860;2023-04-03T02:27:39;0.90;;;0.90;;
59856;SDS011;45733;52.668;6.860;2023-04-03T02:30:05;0.80;;;0.80;;
59856;SDS011;45733;52.668;6.860;2023-04-03T02:32:31;0.90;;;0.90;;
59856;SDS011;45733;52.668;6.860;2023-04-03T02:34:57;0.90;;;0.90;;
59856;SDS011;45733;52.668;6.860;2023-04-03T02:37:23;0.90;;;0.90;;
59856;SDS011;45733;52.668;6.860;2023-04-03T02:39:48;0.80;;;0.80;;
59856;SDS011;45733;52.668;6.860;2023-04-03T02:42:14;0.90;;;0.90;;
59856;SDS011;45733;52.668;6.860;2023-04-03T02:44:40;0.90;;;0.90;;
59856;SDS011;45733;52.668;6.860;2023-04-03T02:47:06;0.85;;;0.85;;
59856;SDS011;45733;52.668;6.860;2023-04-03T02:49:32;0.90;;;0.90;;
59856;SDS011;45733;52.668;6.860;2023-04-03T02:51:57;0.80;;;0.80;;
59856;SDS011;45733;52.668;6.860;2023-04-03T02:54:23;0.80;;;0.80;;
59856;SDS011;45733;52.668;6.860;2023-04-03T02:56:52;0.80;;;0.80;;
59856;SDS011;45733;52.668;6.860;2023-04-03T02:59:18;0.90;;;0.90;;
59856;SDS011;45733;52.668;6.860;2023-04-03T03:01:45;0.80;;;0.80;;
59856;SDS011;45733;52.668;6.860;2023-04-03T03:04:11;0.80;;;0.80;;
59856;SDS011;45733;52.668;6.860;2023-04-03T03:06:36;0.80;;;0.80;;
59856;SDS011;45733;52.668;6.860;2023-04-03T03:09:02;0.80;;;0.80;;
59856;SDS011;45733;52.668;6.860;2023-04-03T03:11:28;0.80;;;0.80;;
59856;SDS011;45733;52.668;6.860;2023-04-03T03:13:55;0.80;;;0.80;;
59856;SDS011;45733;52.668;6.860;2023-04-03T03:16:20;0.80;;;0.80;;
59856;SDS011;45733;52.668;6.860;2023-04-03T03:18:46;0.80;;;0.80;;
59856;SDS011;45733;52.668;6.860;2023-04-03T03:21:12;0.80;;;0.80;;
59856;SDS011;45733;52.668;6.860;2023-04-03T03:23:38;0.80;;;0.80;;
59856;SDS011;45733;52.668;6.860;2023-04-03T03:26:04;0.80;;;0.80;;
59856;SDS011;45733;52.668;6.860;2023-04-03T03:28:32;0.85;;;0.85;;
59856;SDS011;45733;52.668;6.860;2023-04-03T03:30:58;0.80;;;0.80;;
59856;SDS011;45733;52.668;6.860;2023-04-03T03:33:25;0.80;;;0.80;;
59856;SDS011;45733;52.668;6.860;2023-04-03T03:35:51;0.80;;;0.80;;
59856;SDS011;45733;52.668;6.860;2023-04-03T03:38:17;0.80;;;0.80;;
59856;SDS011;45733;52.668;6.860;2023-04-03T03:40:43;0.70;;;0.70;;
59856;SDS011;45733;52.668;6.860;2023-04-03T03:43:08;0.80;;;0.80;;
59856;SDS011;45733;52.668;6.860;2023-04-03T03:45:34;0.80;;;0.80;;
59856;SDS011;45733;52.668;6.860;2023-04-03T03:48:00;0.70;;;0.70;;
59856;SDS011;45733;52.668;6.860;2023-04-03T03:50:26;0.80;;;0.80;;
59856;SDS011;45733;52.668;6.860;2023-04-03T03:52:52;0.80;;;0.80;;
59856;SDS011;45733;52.668;6.860;2023-04-03T03:55:17;0.70;;;0.70;;
59856;SDS011;45733;52.668;6.860;2023-04-03T03:57:43;0.70;;;0.70;;
59856;SDS011;45733;52.668;6.860;2023-04-03T04:00:09;0.70;;;0.70;;
59856;SDS011;45733;52.668;6.860;2023-04-03T04:02:35;0.70;;;0.70;;
59856;SDS011;45733;52.668;6.860;2023-04-03T04:05:01;0.70;;;0.70;;
59856;SDS011;45733;52.668;6.860;2023-04-03T04:07:27;0.70;;;0.70;;
59856;SDS011;45733;52.668;6.860;2023-04-03T04:09:54;0.70;;;0.70;;
59856;SDS011;45733;52.668;6.860;2023-04-03T04:12:20;0.70;;;0.70;;
59856;SDS011;45733;52.668;6.860;2023-04-03T04:14:46;0.70;;;0.70;;
59856;SDS011;45733;52.668;6.860;2023-04-03T04:17:12;0.80;;;0.80;;
59856;SDS011;45733;52.668;6.860;2023-04-03T04:19:39;0.80;;;0.80;;
59856;SDS011;45733;52.668;6.860;2023-04-03T04:22:04;0.77;;;0.77;;
59856;SDS011;45733;52.668;6.860;2023-04-03T04:24:30;0.75;;;0.75;;
59856;SDS011;45733;52.668;6.860;2023-04-03T04:26:56;0.80;;;0.80;;
59856;SDS011;45733;52.668;6.860;2023-04-03T04:29:21;0.75;;;0.75;;
59856;SDS011;45733;52.668;6.860;2023-04-03T04:31:47;0.80;;;0.80;;
59856;SDS011;45733;52.668;6.860;2023-04-03T04:34:13;0.70;;;0.70;;
59856;SDS011;45733;52.668;6.860;2023-04-03T04:36:39;0.80;;;0.80;;
59856;SDS011;45733;52.668;6.860;2023-04-03T04:39:05;0.80;;;0.80;;
59856;SDS011;45733;52.668;6.860;2023-04-03T04:41:31;0.80;;;0.80;;
59856;SDS011;45733;52.668;6.860;2023-04-03T04:43:56;0.80;;;0.80;;
59856;SDS011;45733;52.668;6.860;2023-04-03T04:46:23;0.80;;;0.80;;
59856;SDS011;45733;52.668;6.860;2023-04-03T04:48:48;0.80;;;0.80;;
59856;SDS011;45733;52.668;6.860;2023-04-03T04:51:14;0.70;;;0.70;;
59856;SDS011;45733;52.668;6.860;2023-04-03T04:53:41;0.80;;;0.80;;
59856;SDS011;45733;52.668;6.860;2023-04-03T04:56:07;0.80;;;0.80;;
59856;SDS011;45733;52.668;6.860;2023-04-03T04:58:33;0.80;;;0.80;;
59856;SDS011;45733;52.668;6.860;2023-04-03T05:00:59;0.70;;;0.70;;
59856;SDS011;45733;52.668;6.860;2023-04-03T05:03:26;0.70;;;0.70;;
59856;SDS011;45733;52.668;6.860;2023-04-03T05:05:51;0.70;;;0.70;;
59856;SDS011;45733;52.668;6.860;2023-04-03T05:08:17;0.70;;;0.70;;
59856;SDS011;45733;52.668;6.860;2023-04-03T05:10:44;0.80;;;0.80;;
59856;SDS011;45733;52.668;6.860;2023-04-03T05:13:10;0.80;;;0.80;;
59856;SDS011;45733;52.668;6.860;2023-04-03T05:15:36;0.80;;;0.80;;
59856;SDS011;45733;52.668;6.860;2023-04-03T05:18:02;0.80;;;0.80;;
59856;SDS011;45733;52.668;6.860;2023-04-03T05:20:28;0.85;;;0.85;;
59856;SDS011;45733;52.668;6.860;2023-04-03T05:22:53;0.75;;;0.75;;
59856;SDS011;45733;52.668;6.860;2023-04-03T05:25:19;0.80;;;0.80;;
59856;SDS011;45733;52.668;6.860;2023-04-03T05:27:45;0.80;;;0.80;;
59856;SDS011;45733;52.668;6.860;2023-04-03T05:30:11;0.80;;;0.80;;
59856;SDS011;45733;52.668;6.860;2023-04-03T05:32:37;0.80;;;0.80;;
59856;SDS011;45733;52.668;6.860;2023-04-03T05:35:03;0.70;;;0.70;;
59856;SDS011;45733;52.668;6.860;2023-04-03T05:37:30;0.70;;;0.70;;
59856;SDS011;45733;52.668;6.860;2023-04-03T05:39:56;0.70;;;0.70;;
59856;SDS011;45733;52.668;6.860;2023-04-03T05:42:22;0.80;;;0.80;;
59856;SDS011;45733;52.668;6.860;2023-04-03T05:44:47;0.80;;;0.80;;
59856;SDS011;45733;52.668;6.860;2023-04-03T05:47:15;0.70;;;0.70;;
59856;SDS011;45733;52.668;6.860;2023-04-03T05:49:41;0.70;;;0.70;;
59856;SDS011;45733;52.668;6.860;2023-04-03T05:52:13;0.80;;;0.80;;
59856;SDS011;45733;52.668;6.860;2023-04-03T05:54:42;0.70;;;0.70;;
59856;SDS011;45733;52.668;6.860;2023-04-03T05:57:09;0.70;;;0.70;;
59856;SDS011;45733;52.668;6.860;2023-04-03T05:59:35;0.70;;;0.70;;
59856;SDS011;45733;52.668;6.860;2023-04-03T06:02:00;0.70;;;0.70;;
59856;SDS011;45733;52.668;6.860;2023-04-03T06:04:26;0.70;;;0.70;;
59856;SDS011;45733;52.668;6.860;2023-04-03T06:06:56;0.70;;;0.70;;
59856;SDS011;45733;52.668;6.860;2023-04-03T06:09:26;0.70;;;0.70;;
59856;SDS011;45733;52.668;6.860;2023-04-03T06:11:53;0.80;;;0.80;;
59856;SDS011;45733;52.668;6.860;2023-04-03T06:14:19;0.70;;;0.70;;
59856;SDS011;45733;52.668;6.860;2023-04-03T06:16:45;0.70;;;0.70;;
59856;SDS011;45733;52.668;6.860;2023-04-03T06:19:11;0.70;;;0.70;;
59856;SDS011;45733;52.668;6.860;2023-04-03T06:21:37;0.70;;;0.70;;
59856;SDS011;45733;52.668;6.860;2023-04-03T06:24:03;0.70;;;0.70;;
59856;SDS011;45733;52.668;6.860;2023-04-03T06:26:30;0.70;;;0.70;;
59856;SDS011;45733;52.668;6.860;2023-04-03T06:28:57;0.73;;;0.73;;
59856;SDS011;45733;52.668;6.860;2023-04-03T06:31:22;0.70;;;0.70;;
59856;SDS011;45733;52.668;6.860;2023-04-03T06:33:48;0.70;;;0.70;;
59856;SDS011;45733;52.668;6.860;2023-04-03T06:36:14;0.80;;;0.80;;
59856;SDS011;45733;52.668;6.860;2023-04-03T06:38:44;0.80;;;0.80;;
59856;SDS011;45733;52.668;6.860;2023-04-03T06:41:11;0.70;;;0.70;;
59856;SDS011;45733;52.668;6.860;2023-04-03T06:43:37;0.70;;;0.70;;
59856;SDS011;45733;52.668;6.860;2023-04-03T06:46:03;0.70;;;0.70;;
59856;SDS011;45733;52.668;6.860;2023-04-03T06:48:28;0.70;;;0.70;;
59856;SDS011;45733;52.668;6.860;2023-04-03T06:50:54;0.80;;;0.80;;
59856;SDS011;45733;52.668;6.860;2023-04-03T06:53:20;0.80;;;0.80;;
59856;SDS011;45733;52.668;6.860;2023-04-03T06:55:46;0.70;;;0.70;;
59856;SDS011;45733;52.668;6.860;2023-04-03T06:58:12;0.70;;;0.70;;
59856;SDS011;45733;52.668;6.860;2023-04-03T07:00:40;0.80;;;0.80;;
59856;SDS011;45733;52.668;6.860;2023-04-03T07:03:06;0.80;;;0.80;;
59856;SDS011;45733;52.668;6.860;2023-04-03T07:05:31;0.70;;;0.70;;
59856;SDS011;45733;52.668;6.860;2023-04-03T07:07:57;0.70;;;0.70;;
59856;SDS011;45733;52.668;6.860;2023-04-03T07:10:23;0.70;;;0.70;;
59856;SDS011;45733;52.668;6.860;2023-04-03T07:12:49;0.70;;;0.70;;
59856;SDS011;45733;52.668;6.860;2023-04-03T07:15:14;0.70;;;0.70;;
59856;SDS011;45733;52.668;6.860;2023-04-03T07:17:40;0.70;;;0.70;;
59856;SDS011;45733;52.668;6.860;2023-04-03T07:20:06;0.70;;;0.70;;
59856;SDS011;45733;52.668;6.860;2023-04-03T07:22:33;0.70;;;0.70;;
59856;SDS011;45733;52.668;6.860;2023-04-03T07:24:58;0.70;;;0.70;;
59856;SDS011;45733;52.668;6.860;2023-04-03T07:27:25;0.70;;;0.70;;
59856;SDS011;45733;52.668;6.860;2023-04-03T07:29:51;0.70;;;0.70;;
59856;SDS011;45733;52.668;6.860;2023-04-03T07:32:16;0.70;;;0.70;;
59856;SDS011;45733;52.668;6.860;2023-04-03T07:34:43;0.80;;;0.80;;
59856;SDS011;45733;52.668;6.860;2023-04-03T07:37:09;0.70;;;0.70;;
59856;SDS011;45733;52.668;6.860;2023-04-03T07:39:35;0.70;;;0.70;;
59856;SDS011;45733;52.668;6.860;2023-04-03T07:42:00;0.70;;;0.70;;
59856;SDS011;45733;52.668;6.860;2023-04-03T07:44:27;0.63;;;0.63;;
59856;SDS011;45733;52.668;6.860;2023-04-03T07:47:11;0.70;;;0.70;;
59856;SDS011;45733;52.668;6.860;2023-04-03T07:49:38;0.70;;;0.70;;
59856;SDS011;45733;52.668;6.860;2023-04-03T07:52:05;0.63;;;0.63;;
59856;SDS011;45733;52.668;6.860;2023-04-03T07:54:32;0.70;;;0.70;;
59856;SDS011;45733;52.668;6.860;2023-04-03T07:56:58;0.70;;;0.70;;
59856;SDS011;45733;52.668;6.860;2023-04-03T07:59:24;0.65;;;0.65;;
59856;SDS011;45733;52.668;6.860;2023-04-03T08:01:50;0.60;;;0.60;;
59856;SDS011;45733;52.668;6.860;2023-04-03T08:04:15;0.70;;;0.70;;
59856;SDS011;45733;52.668;6.860;2023-04-03T08:06:41;0.70;;;0.70;;
59856;SDS011;45733;52.668;6.860;2023-04-03T08:09:07;0.70;;;0.70;;
59856;SDS011;45733;52.668;6.860;2023-04-03T08:11:33;0.70;;;0.70;;
59856;SDS011;45733;52.668;6.860;2023-04-03T08:13:59;0.70;;;0.70;;
59856;SDS011;45733;52.668;6.860;2023-04-03T08:16:25;0.70;;;0.70;;
59856;SDS011;45733;52.668;6.860;2023-04-03T08:18:52;0.70;;;0.70;;
59856;SDS011;45733;52.668;6.860;2023-04-03T08:21:18;0.68;;;0.68;;
59856;SDS011;45733;52.668;6.860;2023-04-03T08:23:44;0.70;;;0.70;;
59856;SDS011;45733;52.668;6.860;2023-04-03T08:26:11;0.70;;;0.70;;
59856;SDS011;45733;52.668;6.860;2023-04-03T08:28:38;0.70;;;0.70;;
59856;SDS011;45733;52.668;6.860;2023-04-03T08:31:05;0.70;;;0.70;;
59856;SDS011;45733;52.668;6.860;2023-04-03T08:33:33;0.60;;;0.60;;
59856;SDS011;45733;52.668;6.860;2023-04-03T08:36:00;0.60;;;0.60;;
59856;SDS011;45733;52.668;6.860;2023-04-03T08:38:26;0.70;;;0.70;;
59856;SDS011;45733;52.668;6.860;2023-04-03T08:41:13;0.70;;;0.70;;
59856;SDS011;45733;52.668;6.860;2023-04-03T08:43:56;0.68;;;0.68;;
59856;SDS011;45733;52.668;6.860;2023-04-03T08:46:40;0.70;;;0.70;;
59856;SDS011;45733;52.668;6.860;2023-04-03T08:49:15;0.70;;;0.70;;
59856;SDS011;45733;52.668;6.860;2023-04-03T08:52:20;0.70;;;0.70;;
59856;SDS011;45733;52.668;6.860;2023-04-03T08:54:54;0.60;;;0.60;;
59856;SDS011;45733;52.668;6.860;2023-04-03T08:57:27;0.60;;;0.60;;
59856;SDS011;45733;52.668;6.860;2023-04-03T08:59:56;0.70;;;0.70;;
59856;SDS011;45733;52.668;6.860;2023-04-03T09:02:28;0.60;;;0.60;;
59856;SDS011;45733;52.668;6.860;2023-04-03T09:05:12;0.70;;;0.70;;
59856;SDS011;45733;52.668;6.860;2023-04-03T09:10:52;0.70;;;0.70;;
59856;SDS011;45733;52.668;6.860;2023-04-03T09:16:36;0.70;;;0.70;;
59856;SDS011;45733;52.668;6.860;2023-04-03T09:19:23;0.70;;;0.70;;
59856;SDS011;45733;52.668;6.860;2023-04-03T09:24:47;0.70;;;0.70;;
59856;SDS011;45733;52.668;6.860;2023-04-03T09:27:21;0.70;;;0.70;;
59856;SDS011;45733;52.668;6.860;2023-04-03T09:29:46;0.70;;;0.70;;
59856;SDS011;45733;52.668;6.860;2023-04-03T09:34:56;0.70;;;0.70;;
59856;SDS011;45733;52.668;6.860;2023-04-03T09:37:41;0.70;;;0.70;;
59856;SDS011;45733;52.668;6.860;2023-04-03T09:42:54;0.68;;;0.68;;
59856;SDS011;45733;52.668;6.860;2023-04-03T09:45:32;0.70;;;0.70;;
59856;SDS011;45733;52.668;6.860;2023-04-03T09:50:40;0.70;;;0.70;;
59856;SDS011;45733;52.668;6.860;2023-04-03T09:56:01;0.70;;;0.70;;
59856;SDS011;45733;52.668;6.860;2023-04-03T09:58:30;0.70;;;0.70;;
59856;SDS011;45733;52.668;6.860;2023-04-03T10:00:59;0.70;;;0.70;;
59856;SDS011;45733;52.668;6.860;2023-04-03T10:03:34;0.70;;;0.70;;
59856;SDS011;45733;52.668;6.860;2023-04-03T10:06:04;0.70;;;0.70;;
59856;SDS011;45733;52.668;6.860;2023-04-03T10:08:59;0.70;;;0.70;;
59856;SDS011;45733;52.668;6.860;2023-04-03T10:11:29;0.70;;;0.70;;
59856;SDS011;45733;52.668;6.860;2023-04-03T10:13:56;0.70;;;0.70;;
59856;SDS011;45733;52.668;6.860;2023-04-03T10:16:27;0.70;;;0.70;;
59856;SDS011;45733;52.668;6.860;2023-04-03T10:19:03;0.80;;;0.80;;
59856;SDS011;45733;52.668;6.860;2023-04-03T10:24:40;0.80;;;0.80;;
59856;SDS011;45733;52.668;6.860;2023-04-03T10:38:14;0.70;;;0.70;;
59856;SDS011;45733;52.668;6.860;2023-04-03T10:40:56;0.70;;;0.70;;
59856;SDS011;45733;52.668;6.860;2023-04-03T10:43:50;0.70;;;0.70;;
59856;SDS011;45733;52.668;6.860;2023-04-03T10:46:44;0.80;;;0.80;;
59856;SDS011;45733;52.668;6.860;2023-04-03T10:49:19;0.70;;;0.70;;
59856;SDS011;45733;52.668;6.860;2023-04-03T10:52:20;0.70;;;0.70;;
59856;SDS011;45733;52.668;6.860;2023-04-03T10:54:56;0.70;;;0.70;;
59856;SDS011;45733;52.668;6.860;2023-04-03T10:57:46;0.70;;;0.70;;
59856;SDS011;45733;52.668;6.860;2023-04-03T11:00:16;0.80;;;0.80;;
59856;SDS011;45733;52.668;6.860;2023-04-03T11:05:25;0.70;;;0.70;;
59856;SDS011;45733;52.668;6.860;2023-04-03T11:07:52;0.80;;;0.80;;
59856;SDS011;45733;52.668;6.860;2023-04-03T11:16:07;0.70;;;0.70;;
59856;SDS011;45733;52.668;6.860;2023-04-03T11:18:39;0.80;;;0.80;;
59856;SDS011;45733;52.668;6.860;2023-04-03T11:21:29;0.80;;;0.80;;
59856;SDS011;45733;52.668;6.860;2023-04-03T11:24:20;0.80;;;0.80;;
59856;SDS011;45733;52.668;6.860;2023-04-03T11:26:49;0.70;;;0.70;;
59856;SDS011;45733;52.668;6.860;2023-04-03T11:29:18;0.70;;;0.70;;
59856;SDS011;45733;52.668;6.860;2023-04-03T11:37:12;0.63;;;0.63;;
59856;SDS011;45733;52.668;6.860;2023-04-03T11:42:42;0.70;;;0.70;;
59856;SDS011;45733;52.668;6.860;2023-04-03T11:47:56;0.70;;;0.70;;
59856;SDS011;45733;52.668;6.860;2023-04-03T11:58:17;0.70;;;0.70;;
59856;SDS011;45733;52.668;6.860;2023-04-03T12:16:21;0.70;;;0.70;;
59856;SDS011;45733;52.668;6.860;2023-04-03T12:21:20;0.60;;;0.60;;
59856;SDS011;45733;52.668;6.860;2023-04-03T12:26:22;0.60;;;0.60;;
59856;SDS011;45733;52.668;6.860;2023-04-03T12:28:51;0.60;;;0.60;;
59856;SDS011;45733;52.668;6.860;2023-04-03T12:31:19;0.70;;;0.70;;
59856;SDS011;45733;52.668;6.860;2023-04-03T12:36:50;0.60;;;0.60;;
59856;SDS011;45733;52.668;6.860;2023-04-03T12:45:20;0.60;;;0.60;;
59856;SDS011;45733;52.668;6.860;2023-04-03T12:47:54;0.60;;;0.60;;
59856;SDS011;45733;52.668;6.860;2023-04-03T12:50:22;0.60;;;0.60;;
59856;SDS011;45733;52.668;6.860;2023-04-03T12:53:04;0.60;;;0.60;;
59856;SDS011;45733;52.668;6.860;2023-04-03T12:55:32;0.60;;;0.60;;
59856;SDS011;45733;52.668;6.860;2023-04-03T12:58:13;0.60;;;0.60;;
59856;SDS011;45733;52.668;6.860;2023-04-03T13:00:59;0.60;;;0.60;;
59856;SDS011;45733;52.668;6.860;2023-04-03T13:03:27;0.55;;;0.55;;
59856;SDS011;45733;52.668;6.860;2023-04-03T13:05:58;0.60;;;0.60;;
59856;SDS011;45733;52.668;6.860;2023-04-03T13:08:27;0.60;;;0.60;;
59856;SDS011;45733;52.668;6.860;2023-04-03T13:13:25;0.60;;;0.60;;
59856;SDS011;45733;52.668;6.860;2023-04-03T13:15:51;0.52;;;0.52;;
59856;SDS011;45733;52.668;6.860;2023-04-03T13:18:22;0.60;;;0.60;;
59856;SDS011;45733;52.668;6.860;2023-04-03T13:21:02;0.60;;;0.60;;
59856;SDS011;45733;52.668;6.860;2023-04-03T13:23:36;0.60;;;0.60;;
59856;SDS011;45733;52.668;6.860;2023-04-03T13:26:05;0.60;;;0.60;;
59856;SDS011;45733;52.668;6.860;2023-04-03T13:28:32;0.60;;;0.60;;
59856;SDS011;45733;52.668;6.860;2023-04-03T13:33:35;0.60;;;0.60;;
59856;SDS011;45733;52.668;6.860;2023-04-03T13:36:16;0.60;;;0.60;;
59856;SDS011;45733;52.668;6.860;2023-04-03T13:38:44;0.60;;;0.60;;
59856;SDS011;45733;52.668;6.860;2023-04-03T13:41:29;0.60;;;0.60;;
59856;SDS011;45733;52.668;6.860;2023-04-03T13:46:42;0.60;;;0.60;;
59856;SDS011;45733;52.668;6.860;2023-04-03T13:49:18;0.60;;;0.60;;
59856;SDS011;45733;52.668;6.860;2023-04-03T13:51:56;0.60;;;0.60;;
59856;SDS011;45733;52.668;6.860;2023-04-03T13:54:23;0.60;;;0.60;;
59856;SDS011;45733;52.668;6.860;2023-04-03T13:56:54;0.60;;;0.60;;
59856;SDS011;45733;52.668;6.860;2023-04-03T13:59:30;0.60;;;0.60;;
59856;SDS011;45733;52.668;6.860;2023-04-03T14:04:31;0.60;;;0.60;;
59856;SDS011;45733;52.668;6.860;2023-04-03T14:07:09;0.60;;;0.60;;
59856;SDS011;45733;52.668;6.860;2023-04-03T14:09:36;0.70;;;0.70;;
59856;SDS011;45733;52.668;6.860;2023-04-03T14:12:45;0.70;;;0.70;;
59856;SDS011;45733;52.668;6.860;2023-04-03T14:14:59;0.60;;;0.60;;
59856;SDS011;45733;52.668;6.860;2023-04-03T14:17:27;0.68;;;0.68;;
59856;SDS011;45733;52.668;6.860;2023-04-03T14:19:54;0.70;;;0.70;;
59856;SDS011;45733;52.668;6.860;2023-04-03T14:22:22;0.70;;;0.70;;
59856;SDS011;45733;52.668;6.860;2023-04-03T14:24:50;0.68;;;0.68;;
59856;SDS011;45733;52.668;6.860;2023-04-03T14:27:21;0.70;;;0.70;;
59856;SDS011;45733;52.668;6.860;2023-04-03T14:29:50;0.70;;;0.70;;
59856;SDS011;45733;52.668;6.860;2023-04-03T14:32:17;0.68;;;0.68;;
59856;SDS011;45733;52.668;6.860;2023-04-03T14:34:45;0.60;;;0.60;;
59856;SDS011;45733;52.668;6.860;2023-04-03T14:37:13;0.70;;;0.70;;
59856;SDS011;45733;52.668;6.860;2023-04-03T14:39:43;0.77;;;0.77;;
59856;SDS011;45733;52.668;6.860;2023-04-03T14:42:15;0.70;;;0.70;;
59856;SDS011;45733;52.668;6.860;2023-04-03T14:44:42;0.90;;;0.90;;
59856;SDS011;45733;52.668;6.860;2023-04-03T14:47:29;0.85;;;0.85;;
59856;SDS011;45733;52.668;6.860;2023-04-03T14:49:54;0.88;;;0.88;;
59856;SDS011;45733;52.668;6.860;2023-04-03T14:52:25;0.98;;;0.98;;
59856;SDS011;45733;52.668;6.860;2023-04-03T14:54:53;1.00;;;1.00;;
59856;SDS011;45733;52.668;6.860;2023-04-03T14:57:19;0.90;;;0.90;;
59856;SDS011;45733;52.668;6.860;2023-04-03T14:59:46;0.90;;;0.90;;
59856;SDS011;45733;52.668;6.860;2023-04-03T15:04:56;0.98;;;0.98;;
59856;SDS011;45733;52.668;6.860;2023-04-03T15:07:23;0.95;;;0.95;;
59856;SDS011;45733;52.668;6.860;2023-04-03T15:09:51;1.10;;;1.10;;
59856;SDS011;45733;52.668;6.860;2023-04-03T15:12:17;1.02;;;1.02;;
59856;SDS011;45733;52.668;6.860;2023-04-03T15:14:43;1.10;;;1.10;;
59856;SDS011;45733;52.668;6.860;2023-04-03T15:17:13;1.02;;;1.02;;
59856;SDS011;45733;52.668;6.860;2023-04-03T15:19:45;1.10;;;1.10;;
59856;SDS011;45733;52.668;6.860;2023-04-03T15:22:18;1.10;;;1.10;;
59856;SDS011;45733;52.668;6.860;2023-04-03T15:27:11;1.40;;;1.40;;
59856;SDS011;45733;52.668;6.860;2023-04-03T15:29:38;1.10;;;1.10;;
59856;SDS011;45733;52.668;6.860;2023-04-03T15:32:06;1.15;;;1.15;;
59856;SDS011;45733;52.668;6.860;2023-04-03T15:34:32;1.10;;;1.10;;
59856;SDS011;45733;52.668;6.860;2023-04-03T15:36:57;1.10;;;1.10;;
59856;SDS011;45733;52.668;6.860;2023-04-03T15:39:24;1.20;;;1.20;;
59856;SDS011;45733;52.668;6.860;2023-04-03T15:41:51;1.13;;;1.13;;
59856;SDS011;45733;52.668;6.860;2023-04-03T15:44:17;1.20;;;1.20;;
59856;SDS011;45733;52.668;6.860;2023-04-03T15:46:44;1.15;;;1.15;;
59856;SDS011;45733;52.668;6.860;2023-04-03T15:49:11;1.15;;;1.15;;
59856;SDS011;45733;52.668;6.860;2023-04-03T15:51:37;1.20;;;1.20;;
59856;SDS011;45733;52.668;6.860;2023-04-03T15:54:03;1.10;;;1.10;;
59856;SDS011;45733;52.668;6.860;2023-04-03T15:56:29;1.02;;;1.02;;
59856;SDS011;45733;52.668;6.860;2023-04-03T15:58:55;1.00;;;1.00;;
59856;SDS011;45733;52.668;6.860;2023-04-03T16:01:21;1.00;;;1.00;;
59856;SDS011;45733;52.668;6.860;2023-04-03T16:03:46;1.00;;;1.00;;
59856;SDS011;45733;52.668;6.860;2023-04-03T16:06:13;0.90;;;0.90;;
59856;SDS011;45733;52.668;6.860;2023-04-03T16:08:40;1.00;;;1.00;;
59856;SDS011;45733;52.668;6.860;2023-04-03T16:11:05;1.00;;;1.00;;
59856;SDS011;45733;52.668;6.860;2023-04-03T16:13:31;1.08;;;1.08;;
59856;SDS011;45733;52.668;6.860;2023-04-03T16:15:58;1.08;;;1.08;;
59856;SDS011;45733;52.668;6.860;2023-04-03T16:18:25;0.95;;;0.95;;
59856;SDS011;45733;52.668;6.860;2023-04-03T16:20:51;0.98;;;0.98;;
59856;SDS011;45733;52.668;6.860;2023-04-03T16:23:17;0.90;;;0.90;;
59856;SDS011;45733;52.668;6.860;2023-04-03T16:25:43;1.00;;;1.00;;
59856;SDS011;45733;52.668;6.860;2023-04-03T16:28:12;1.05;;;1.05;;
59856;SDS011;45733;52.668;6.860;2023-04-03T16:30:42;1.02;;;1.02;;
59856;SDS011;45733;52.668;6.860;2023-04-03T16:33:09;1.15;;;1.15;;
59856;SDS011;45733;52.668;6.860;2023-04-03T16:35:36;1.10;;;1.10;;
59856;SDS011;45733;52.668;6.860;2023-04-03T16:38:02;1.20;;;1.20;;
59856;SDS011;45733;52.668;6.860;2023-04-03T16:40:28;1.25;;;1.25;;
59856;SDS011;45733;52.668;6.860;2023-04-03T16:42:54;1.30;;;1.30;;
59856;SDS011;45733;52.668;6.860;2023-04-03T16:45:20;1.27;;;1.27;;
59856;SDS011;45733;52.668;6.860;2023-04-03T16:47:46;1.17;;;1.17;;
59856;SDS011;45733;52.668;6.860;2023-04-03T16:50:11;1.50;;;1.40;;
59856;SDS011;45733;52.668;6.860;2023-04-03T16:52:37;1.25;;;1.25;;
59856;SDS011;45733;52.668;6.860;2023-04-03T16:55:03;1.27;;;1.27;;